Wielsbeke, Belgium
Current Conditions -  °F | °C
As of 2:00 PM on Thursday 30 Oct 2014 (Local Time) from LFQQ Reporting Station
Clear Clear  
Wind Chill: 64°   Ceiling: Unl
Heat Index: 64°   Visibility: 6mi
Dew Point: 57°   Wind: 8mph
Humidity: 77%   Direction: 170°S
Pressure: 30.15"   Gusts: NA
Location:  50.9°N, 3.37°E
Report Text: LFQQ 301300Z 17007KT CAVOK 18/14 Q1021 NOSIG
Loading
Personal Weather Stations






























Interactive Weather Map
Tropical Storm Tracking
New forecast layout! Learn more

10-Day Weather Forecast

Advertisements
Track Severe Weather on mobile